createdAt,value
2023-04-10T10:02:41.361Z,45.32
2023-04-10T10:03:41.897Z,45.62
2023-04-10T10:04:41.881Z,44.81
2023-04-10T10:05:41.899Z,45.00
2023-04-10T10:06:41.841Z,44.49
2023-04-10T10:07:41.886Z,43.18
2023-04-10T10:08:41.820Z,42.68
2023-04-10T10:09:41.814Z,42.68
2023-04-10T10:10:41.785Z,40.18
2023-04-10T10:11:41.820Z,44.71
2023-04-10T10:12:41.774Z,45.52
2023-04-10T10:13:41.802Z,47.00
2023-04-10T10:14:41.750Z,44.47
2023-04-10T10:15:41.774Z,42.55
2023-04-10T10:16:41.888Z,43.26
2023-04-10T10:17:41.789Z,44.87
2023-04-10T10:18:41.748Z,44.57
2023-04-10T10:19:41.688Z,45.45
2023-04-10T10:20:41.720Z,43.34
2023-04-10T10:21:41.684Z,44.85
2023-04-10T10:22:41.676Z,42.44
2023-04-10T10:23:41.664Z,44.35
2023-04-10T10:24:41.657Z,42.35
2023-04-10T10:25:41.643Z,43.26
2023-04-10T10:26:41.613Z,42.25
2023-04-10T10:27:41.628Z,42.25
2023-04-10T10:28:41.627Z,43.87
2023-04-10T10:29:41.564Z,43.54
2023-04-10T10:30:41.588Z,43.34
2023-04-10T10:31:41.603Z,40.06
2023-04-10T10:32:41.589Z,40.99
2023-04-10T10:33:41.572Z,40.80
2023-04-10T10:34:41.538Z,43.12
2023-04-10T10:35:41.540Z,44.81
2023-04-10T10:36:41.605Z,44.49
2023-04-10T10:37:41.490Z,43.68
2023-04-10T10:38:41.542Z,44.97
2023-04-10T10:39:41.470Z,44.45
2023-04-10T10:40:41.509Z,42.44
2023-04-10T10:41:41.451Z,44.32
2023-04-10T10:42:41.525Z,43.50
2023-04-10T10:43:41.499Z,41.47
2023-04-10T10:44:41.446Z,42.35
2023-04-10T10:45:41.456Z,43.64
2023-04-10T10:46:41.385Z,43.62
2023-04-10T10:47:41.527Z,42.91
2023-04-10T10:48:41.447Z,41.13
2023-04-10T10:49:41.371Z,40.17
2023-04-10T10:50:41.376Z,42.19
2023-04-10T10:51:41.331Z,42.10
2023-04-10T10:52:41.332Z,43.70
2023-04-10T10:53:41.351Z,40.69
2023-04-10T10:54:47.330Z,41.09
2023-04-10T10:55:41.349Z,41.07
2023-04-10T10:56:41.319Z,42.78
2023-04-10T10:57:41.300Z,39.08
2023-04-10T10:58:41.293Z,41.89
2023-04-10T10:59:41.259Z,42.78
2023-04-10T11:00:41.305Z,43.48
2023-04-10T11:01:41.396Z,43.46
2023-04-10T11:02:41.361Z,42.76
2023-04-10T11:03:41.276Z,42.25
2023-04-10T11:04:41.198Z,41.13
2023-04-10T11:05:41.186Z,40.53
2023-04-10T11:06:42.868Z,42.74
2023-04-10T11:07:41.142Z,38.74
2023-04-10T11:08:41.177Z,40.17
2023-04-10T11:09:41.143Z,39.75
2023-04-10T11:10:41.141Z,41.55
2023-04-10T11:11:41.116Z,40.93
2023-04-10T11:12:41.119Z,41.23
2023-04-10T11:13:41.145Z,39.54
2023-04-10T11:14:41.146Z,41.96
2023-04-10T11:15:41.071Z,39.56
2023-04-10T11:16:41.168Z,39.69
2023-04-10T11:17:41.074Z,41.49
2023-04-10T11:18:41.068Z,41.89
2023-04-10T11:19:41.011Z,39.78
2023-04-10T11:20:41.012Z,41.31
2023-04-10T11:21:40.984Z,41.61
2023-04-10T11:22:40.992Z,40.11
2023-04-10T11:23:41.011Z,41.73
2023-04-10T11:24:41.058Z,40.20
2023-04-10T11:25:40.969Z,41.79
2023-04-10T11:26:40.958Z,40.47
2023-04-10T11:27:40.962Z,41.45
2023-04-10T11:28:40.993Z,42.13
2023-04-10T11:29:40.932Z,39.42
2023-04-10T11:30:40.888Z,38.84
2023-04-10T11:31:40.889Z,40.65
2023-04-10T11:32:40.948Z,41.23
2023-04-10T11:33:40.854Z,39.23
2023-04-10T11:34:40.853Z,40.93
2023-04-10T11:35:40.870Z,39.01
2023-04-10T11:36:40.873Z,40.89
2023-04-10T11:37:40.833Z,39.09
2023-04-10T11:38:40.820Z,39.18
2023-04-10T11:39:40.790Z,37.18
2023-04-10T11:40:40.762Z,37.42
2023-04-10T11:41:40.759Z,39.32
2023-04-10T11:42:40.815Z,38.82
2023-04-10T11:43:40.868Z,38.02
2023-04-10T11:44:41.512Z,39.01
2023-04-10T11:45:40.737Z,39.61
2023-04-10T11:46:40.691Z,39.89
2023-04-10T11:47:40.730Z,40.01
2023-04-10T11:48:40.715Z,38.99
2023-04-10T11:49:40.703Z,36.40
2023-04-10T11:50:40.661Z,38.54
2023-04-10T11:51:40.667Z,38.94
2023-04-10T11:52:40.753Z,37.54
2023-04-10T11:53:40.662Z,39.75
2023-04-10T11:54:40.675Z,39.62
2023-04-10T11:55:40.611Z,41.71
2023-04-10T11:56:40.612Z,39.49
2023-04-10T11:57:40.567Z,39.47
2023-04-10T11:58:40.624Z,38.57
2023-04-10T11:59:40.620Z,39.87
2023-04-10T12:00:40.567Z,38.05
2023-04-10T12:01:42.716Z,38.17
2023-04-10T12:02:40.777Z,36.48
2023-04-10T12:03:40.682Z,35.51
2023-04-10T12:04:40.684Z,38.40
2023-04-10T12:05:40.543Z,37.98
2023-04-10T12:06:40.511Z,39.87
2023-04-10T12:07:40.478Z,39.37
2023-04-10T12:08:40.600Z,39.55
2023-04-10T12:09:40.459Z,35.55
2023-04-10T12:10:40.579Z,36.57
2023-04-10T12:11:40.940Z,38.27
2023-04-10T12:12:40.449Z,37.57
2023-04-10T12:13:40.455Z,37.46
2023-04-10T12:14:40.381Z,38.17
2023-04-10T12:15:40.421Z,38.45
2023-04-10T12:16:40.387Z,36.75
2023-04-10T12:17:40.366Z,36.07
2023-04-10T12:18:40.413Z,37.85
2023-04-10T12:19:40.333Z,37.65
2023-04-10T12:20:40.363Z,37.63
2023-04-10T12:21:40.286Z,36.65
2023-04-10T12:22:40.329Z,37.25
2023-04-10T12:23:40.281Z,35.44
2023-04-10T12:24:40.331Z,37.65
2023-04-10T12:25:40.268Z,38.23
2023-04-10T12:26:40.262Z,38.13
2023-04-10T12:27:40.246Z,38.42
2023-04-10T12:28:40.255Z,37.71
2023-04-10T12:29:40.273Z,36.63
2023-04-10T12:30:40.214Z,36.43
2023-04-10T12:31:40.351Z,35.83
2023-04-10T12:32:40.260Z,37.45
2023-04-10T12:33:40.287Z,34.94
2023-04-10T12:34:40.202Z,39.03
2023-04-10T12:35:40.211Z,36.01
2023-04-10T12:36:40.185Z,38.09
2023-04-10T12:37:40.156Z,37.08
2023-04-10T12:38:40.113Z,37.36
2023-04-10T12:39:40.126Z,36.26
2023-04-10T12:40:40.152Z,35.86
2023-04-10T12:41:40.085Z,35.96
2023-04-10T12:42:40.111Z,36.16
2023-04-10T12:43:40.100Z,34.64
2023-04-10T12:44:40.084Z,35.33
2023-04-10T12:45:40.068Z,34.93
2023-04-10T12:46:40.127Z,35.51
2023-04-10T12:47:40.118Z,33.22
2023-04-10T12:48:40.010Z,35.63
2023-04-10T12:49:40.049Z,32.35
2023-04-10T12:50:40.028Z,34.34
2023-04-10T12:51:39.998Z,33.33
2023-04-10T12:52:39.945Z,32.85
2023-04-10T12:53:39.966Z,34.56
2023-04-10T12:54:39.947Z,35.64
2023-04-10T12:55:39.944Z,33.56
2023-04-10T12:56:39.918Z,34.96
2023-04-10T12:57:39.960Z,34.68
2023-04-10T12:58:39.960Z,35.68
2023-04-10T12:59:39.965Z,35.51
2023-04-10T13:00:39.876Z,34.12
2023-04-10T13:01:39.958Z,36.51
2023-04-10T13:02:40.177Z,35.51
2023-04-10T13:03:39.970Z,33.83
2023-04-10T13:04:40.005Z,33.74
2023-04-10T13:05:39.820Z,35.46
2023-04-10T13:06:39.794Z,36.25
2023-04-10T13:07:39.850Z,37.03
2023-04-10T13:08:39.835Z,36.81
2023-04-10T13:09:39.785Z,35.91
2023-04-10T13:10:39.809Z,36.10
2023-04-10T13:11:39.766Z,36.79
2023-04-10T13:12:39.755Z,32.32
2023-04-10T13:13:39.732Z,35.83
2023-04-10T13:14:39.726Z,34.53
2023-04-10T13:15:39.709Z,34.41
2023-04-10T13:16:39.760Z,33.03
2023-04-10T13:17:39.748Z,34.03
2023-04-10T13:18:39.666Z,35.71
2023-04-10T13:19:39.692Z,35.21
2023-04-10T13:20:39.663Z,34.80
2023-04-10T13:21:39.683Z,35.60
2023-04-10T13:22:39.645Z,33.80
2023-04-10T13:23:39.631Z,34.78
2023-04-10T13:24:39.618Z,32.88
2023-04-10T13:25:39.768Z,33.09
2023-04-10T13:26:39.572Z,34.00
2023-04-10T13:27:39.557Z,34.96
2023-04-10T13:28:39.598Z,34.75
2023-04-10T13:29:40.724Z,33.35
2023-04-10T13:30:39.539Z,32.56
2023-04-10T13:31:39.563Z,30.58
2023-04-10T13:32:39.586Z,34.09
2023-04-10T13:33:39.553Z,34.59
2023-04-10T13:34:39.569Z,32.89
2023-04-10T13:35:39.482Z,36.18
2023-04-10T13:36:39.526Z,34.86
2023-04-10T13:37:39.459Z,33.93
2023-04-10T13:38:39.439Z,32.33
2023-04-10T13:39:39.472Z,31.96
2023-04-10T13:40:39.436Z,33.35
2023-04-10T13:41:39.405Z,34.63
2023-04-10T13:42:41.926Z,33.73
2023-04-10T13:43:39.428Z,33.43
2023-04-10T13:44:39.620Z,33.36
2023-04-10T13:45:39.392Z,32.97
2023-04-10T13:46:39.440Z,34.78
2023-04-10T13:47:39.389Z,35.68
2023-04-10T13:48:40.761Z,33.31
2023-04-10T13:49:39.318Z,33.33
2023-04-10T13:50:39.337Z,37.13
2023-04-10T13:51:39.309Z,34.84
2023-04-10T13:52:39.338Z,35.14
2023-04-10T13:53:39.283Z,35.46
2023-04-10T13:54:39.391Z,34.76
2023-04-10T13:55:39.277Z,37.05
2023-04-10T13:56:39.259Z,37.35
2023-04-10T13:57:39.252Z,35.75
2023-04-10T13:58:40.089Z,35.64
2023-04-10T13:59:39.592Z,37.33
2023-04-10T14:00:39.245Z,36.63
2023-04-10T14:01:39.224Z,36.33
2023-04-10T14:02:39.265Z,37.31
2023-04-10T14:03:39.325Z,37.31
2023-04-10T14:04:39.210Z,36.11
2023-04-10T14:05:39.177Z,36.01
2023-04-10T14:06:39.183Z,35.05
2023-04-10T14:07:39.184Z,35.16
2023-04-10T14:08:39.136Z,36.36
2023-04-10T14:09:39.131Z,34.67
2023-04-10T14:10:39.123Z,36.40
2023-04-10T14:11:39.105Z,37.10
2023-04-10T14:12:39.057Z,35.21
2023-04-10T14:13:39.094Z,37.02
2023-04-10T14:14:39.100Z,36.61
2023-04-10T14:15:39.061Z,37.02
2023-04-10T14:16:39.075Z,35.61
2023-04-10T14:17:39.018Z,36.92
2023-04-10T14:18:39.003Z,37.92
2023-04-10T14:19:39.137Z,36.43
2023-04-10T14:20:38.976Z,36.23
2023-04-10T14:21:38.975Z,36.93
2023-04-10T14:22:38.987Z,37.63
2023-04-10T14:23:38.939Z,38.54
2023-04-10T14:24:39.124Z,37.04
2023-04-10T14:25:38.981Z,37.44
2023-04-10T14:26:38.922Z,36.27
2023-04-10T14:27:38.955Z,37.67
2023-04-10T14:28:38.905Z,36.67
2023-04-10T14:29:44.738Z,37.07
2023-04-10T14:30:38.916Z,38.78
2023-04-10T14:31:50.530Z,38.98
2023-04-10T14:32:38.921Z,38.58
2023-04-10T14:33:38.858Z,36.87
2023-04-10T14:34:38.860Z,38.60
2023-04-10T14:35:39.642Z,38.09
2023-04-10T14:36:38.814Z,38.09
2023-04-10T14:37:38.851Z,36.36
2023-04-10T14:38:38.788Z,36.58
2023-04-10T14:39:38.850Z,37.59
2023-04-10T14:40:38.788Z,37.69
2023-04-10T14:41:38.748Z,35.78
2023-04-10T14:42:38.776Z,36.18
2023-04-10T14:43:38.723Z,38.29
2023-04-10T14:44:38.741Z,37.99
2023-04-10T14:45:38.689Z,37.39
2023-04-10T14:46:38.692Z,37.99
2023-04-10T14:47:38.752Z,36.29
2023-04-10T14:48:38.714Z,36.79
2023-04-10T14:49:38.729Z,37.39
2023-04-10T14:50:38.656Z,37.79
2023-04-10T14:51:38.656Z,37.99
2023-04-10T14:52:38.610Z,36.69
2023-04-10T14:53:38.661Z,37.59
2023-04-10T14:54:38.715Z,37.79
2023-04-10T14:55:38.600Z,38.60
2023-04-10T14:56:38.575Z,38.11
2023-04-10T14:57:38.618Z,37.51
2023-04-10T14:58:39.109Z,38.90
2023-04-10T14:59:38.608Z,38.70
2023-04-10T15:00:38.540Z,36.49
2023-04-10T15:01:38.593Z,37.59
2023-04-10T15:02:38.674Z,36.00
2023-04-10T15:03:38.666Z,38.62
2023-04-10T15:04:38.582Z,38.21
2023-04-10T15:05:38.568Z,38.42
2023-04-10T15:06:38.499Z,38.92
2023-04-10T15:07:38.458Z,37.63
2023-04-10T15:08:38.469Z,38.03
2023-04-10T15:09:38.472Z,38.43
2023-04-10T15:10:38.426Z,38.83
2023-04-10T15:11:38.457Z,38.83
2023-04-10T15:12:38.430Z,36.92
2023-04-10T15:13:38.382Z,38.73
2023-04-10T15:14:38.416Z,38.64
2023-04-10T15:15:38.395Z,36.33
2023-04-10T15:16:38.396Z,38.45
2023-04-10T15:17:38.350Z,39.94
2023-04-10T15:18:38.328Z,38.33
2023-04-10T15:19:38.338Z,39.03
2023-04-10T15:20:38.318Z,39.96
2023-04-10T15:21:38.306Z,39.23
2023-04-10T15:22:38.295Z,38.25
2023-04-10T15:23:38.252Z,39.36
2023-04-10T15:24:50.053Z,39.45
2023-04-10T15:25:38.282Z,38.75
2023-04-10T15:26:38.217Z,39.56
2023-04-10T15:27:38.227Z,40.78
2023-04-10T15:28:38.182Z,39.86
2023-04-10T15:29:38.259Z,40.16
2023-04-10T15:30:38.276Z,40.56
2023-04-10T15:31:38.186Z,39.48
2023-04-10T15:32:38.305Z,39.17
2023-04-10T15:33:38.138Z,39.17
2023-04-10T15:34:38.167Z,38.28
2023-04-10T15:35:38.190Z,38.67
2023-04-10T15:36:38.155Z,39.37
2023-04-10T15:37:38.104Z,39.07
2023-04-10T15:38:38.089Z,40.69
2023-04-10T15:39:38.107Z,39.90
2023-04-10T15:40:38.058Z,38.99
2023-04-10T15:41:38.125Z,41.20
2023-04-10T15:42:38.051Z,40.91
2023-04-10T15:43:38.070Z,40.30
2023-04-10T15:44:38.019Z,39.19
2023-04-10T15:45:38.082Z,40.50
2023-04-10T15:46:38.635Z,39.11
2023-04-10T15:47:38.168Z,40.52
2023-04-10T15:48:37.978Z,40.72
2023-04-10T15:49:38.872Z,40.92
2023-04-10T15:50:37.944Z,40.92
2023-04-10T15:51:37.956Z,40.62
2023-04-10T15:52:37.977Z,40.22
2023-04-10T15:53:37.908Z,41.42
2023-04-10T15:54:37.889Z,40.40
2023-04-10T15:55:37.925Z,40.60
2023-04-10T15:56:37.928Z,41.41
2023-04-10T15:57:37.868Z,40.91
2023-04-10T15:58:37.871Z,41.61
2023-04-10T15:59:37.979Z,41.00
2023-04-10T16:00:38.598Z,40.30
2023-04-10T16:01:37.935Z,40.10
2023-04-10T16:02:37.952Z,39.29
2023-04-10T16:03:38.017Z,41.41
2023-04-10T16:04:37.878Z,41.91
2023-04-10T16:05:37.774Z,41.31
2023-04-10T16:06:37.770Z,42.11
2023-04-10T16:07:37.747Z,42.82
2023-04-10T16:08:37.758Z,42.82
2023-04-10T16:09:37.752Z,40.80
2023-04-10T16:10:37.741Z,41.41
2023-04-10T16:11:37.691Z,41.22
2023-04-10T16:12:37.694Z,41.73
2023-04-10T16:13:39.894Z,41.63
2023-04-10T16:14:38.138Z,41.53
2023-04-10T16:15:37.748Z,42.64
2023-04-10T16:16:37.629Z,42.03
2023-04-10T16:17:37.655Z,42.33
2023-04-10T16:18:37.639Z,41.65
2023-04-10T16:19:37.619Z,42.05
2023-04-10T16:20:37.660Z,41.95
2023-04-10T16:21:37.591Z,41.14
2023-04-10T16:22:37.610Z,41.75
2023-04-10T16:23:37.563Z,41.75
2023-04-10T16:24:37.606Z,42.96
2023-04-10T16:25:37.552Z,42.35
2023-04-10T16:26:37.545Z,41.95
2023-04-10T16:27:37.538Z,42.66
2023-04-10T16:28:37.498Z,41.27
2023-04-10T16:29:37.552Z,43.48
2023-04-10T16:30:37.491Z,43.08
2023-04-10T16:31:37.549Z,42.47
2023-04-10T16:32:37.514Z,42.88
2023-04-10T16:33:37.474Z,43.79
2023-04-10T16:34:37.491Z,43.18
2023-04-10T16:35:37.456Z,43.48
2023-04-10T16:36:37.437Z,43.28
2023-04-10T16:37:37.406Z,43.38
2023-04-10T16:38:37.416Z,42.68
2023-04-10T16:39:37.428Z,43.18
2023-04-10T16:40:37.418Z,44.19
2023-04-10T16:41:37.377Z,43.48
2023-04-10T16:42:37.345Z,43.48
2023-04-10T16:43:37.353Z,43.38
2023-04-10T16:44:37.356Z,43.79
2023-04-10T16:45:37.335Z,43.79
2023-04-10T16:46:37.325Z,43.59
2023-04-10T16:47:37.349Z,43.48
2023-04-10T16:48:37.273Z,43.59
2023-04-10T16:49:37.311Z,43.48
2023-04-10T16:50:37.281Z,43.26
2023-04-10T16:51:37.303Z,43.99
2023-04-10T16:52:37.264Z,44.09
2023-04-10T16:53:37.216Z,44.39
2023-04-10T16:54:37.233Z,43.48
2023-04-10T16:55:37.203Z,44.19
2023-04-10T16:56:37.195Z,44.11
2023-04-10T16:57:37.209Z,45.30
2023-04-10T16:58:37.177Z,44.71
2023-04-10T16:59:37.229Z,45.62
2023-04-10T17:00:37.189Z,44.92
2023-04-10T17:01:37.277Z,45.73
2023-04-10T17:02:37.210Z,44.82
2023-04-10T17:03:37.178Z,45.53
2023-04-10T17:04:37.682Z,46.03
2023-04-10T17:05:37.092Z,45.22
2023-04-10T17:06:37.080Z,45.93
2023-04-10T17:07:37.100Z,44.01
2023-04-10T17:08:37.062Z,44.21
2023-04-10T17:09:37.098Z,45.32
2023-04-10T17:10:37.079Z,44.92
2023-04-10T17:11:37.013Z,44.43
2023-04-10T17:12:37.062Z,45.12
2023-04-10T17:13:37.088Z,44.92
2023-04-10T17:14:37.156Z,45.53
2023-04-10T17:15:36.990Z,45.25
2023-04-10T17:16:37.004Z,45.45
2023-04-10T17:17:37.031Z,46.15
2023-04-10T17:18:36.973Z,44.74
2023-04-10T17:19:36.985Z,45.14
2023-04-10T17:20:36.992Z,45.45
2023-04-10T17:21:37.478Z,45.45
2023-04-10T17:22:36.918Z,45.34
2023-04-10T17:23:36.921Z,46.15
2023-04-10T17:24:36.935Z,45.85
2023-04-10T17:25:36.917Z,45.34
2023-04-10T17:26:36.849Z,46.25
2023-04-10T17:27:39.748Z,45.65
2023-04-10T17:28:36.860Z,45.06
2023-04-10T17:29:37.131Z,45.54
2023-04-10T17:30:36.846Z,45.06
2023-04-10T17:31:36.837Z,46.15
2023-04-10T17:32:36.838Z,45.26
2023-04-10T17:33:36.785Z,45.67
2023-04-10T17:34:36.811Z,45.75
2023-04-10T17:35:36.892Z,45.26
2023-04-10T17:36:36.741Z,45.97
2023-04-10T17:37:36.781Z,45.67
2023-04-10T17:38:36.743Z,46.48
2023-04-10T17:39:36.738Z,45.97
2023-04-10T17:40:36.699Z,45.97
2023-04-10T17:41:36.669Z,47.19
2023-04-10T17:42:36.709Z,47.49
2023-04-10T17:43:36.743Z,46.78
2023-04-10T17:44:36.732Z,46.37
2023-04-10T17:45:36.656Z,46.48
2023-04-10T17:46:36.688Z,46.78
2023-04-10T17:47:36.670Z,47.28
2023-04-10T17:48:36.735Z,47.39
2023-04-10T17:49:36.635Z,48.19
2023-04-10T17:50:36.587Z,48.50
2023-04-10T17:51:36.558Z,48.80
2023-04-10T17:52:36.550Z,49.21
2023-04-10T17:53:36.534Z,49.81
2023-04-10T17:54:36.558Z,50.34
2023-04-10T17:55:36.505Z,51.55
2023-04-10T17:56:36.525Z,54.82
2023-04-10T17:57:36.480Z,58.76
2023-04-10T17:58:36.495Z,56.96
2023-04-10T17:59:36.481Z,59.22
2023-04-10T18:00:36.459Z,60.86
2023-04-10T18:01:36.507Z,63.32
2023-04-10T18:02:36.522Z,63.73
2023-04-10T18:03:36.492Z,65.18
2023-04-10T18:04:36.440Z,65.62
2023-04-10T18:05:36.428Z,66.33
2023-04-10T18:06:36.386Z,67.17
2023-04-10T18:07:36.373Z,69.60
2023-04-10T18:08:36.377Z,69.60
2023-04-10T18:09:36.372Z,70.32
2023-04-10T18:10:36.342Z,70.42
2023-04-10T18:11:36.326Z,71.36
2023-04-10T18:12:36.329Z,70.76
2023-04-10T18:13:36.333Z,71.80
2023-04-10T18:14:36.319Z,72.34
2023-04-10T18:15:36.280Z,73.87
2023-04-10T18:16:36.320Z,74.38
2023-04-10T18:17:39.195Z,75.09
2023-04-10T18:18:36.251Z,74.68
2023-04-10T18:19:36.246Z,76.01
2023-04-10T18:20:36.237Z,77.47
2023-04-10T18:21:36.211Z,77.77
2023-04-10T18:22:36.206Z,77.67
2023-04-10T18:23:36.194Z,78.08
2023-04-10T18:24:36.201Z,77.87
2023-04-10T18:25:36.164Z,78.17
2023-04-10T18:26:36.176Z,78.68
2023-04-10T18:27:36.167Z,78.62
2023-04-10T18:28:36.133Z,78.41
2023-04-10T18:29:36.146Z,79.33
2023-04-10T18:30:36.181Z,79.94
2023-04-10T18:31:36.109Z,79.43
2023-04-10T18:32:36.201Z,79.33
2023-04-10T18:33:36.272Z,79.63
2023-04-10T18:34:36.097Z,80.55
2023-04-10T18:35:36.078Z,80.49
2023-04-10T18:36:36.051Z,80.08
2023-04-10T18:37:36.030Z,80.49
2023-04-10T18:38:36.627Z,80.38
2023-04-10T18:39:36.026Z,80.79
2023-04-10T18:40:35.994Z,81.40
2023-04-10T18:41:36.000Z,81.51
2023-04-10T18:42:36.003Z,79.98
2023-04-10T18:43:35.964Z,80.08
2023-04-10T18:44:35.965Z,80.79
2023-04-10T18:45:35.936Z,80.99
2023-04-10T18:46:36.053Z,81.57
2023-04-10T18:47:36.022Z,80.29
2023-04-10T18:48:36.010Z,80.49
2023-04-10T18:49:35.946Z,81.40
2023-04-10T18:50:35.905Z,81.91
2023-04-10T18:51:35.898Z,82.42
2023-04-10T18:52:35.869Z,82.73
2023-04-10T18:53:35.967Z,82.73
2023-04-10T18:54:35.905Z,82.32
2023-04-10T18:55:35.889Z,82.87
2023-04-10T18:56:35.974Z,83.17
2023-04-10T18:57:35.813Z,83.17
2023-04-10T18:58:35.866Z,82.70
2023-04-10T18:59:35.814Z,83.48
2023-04-10T19:00:35.810Z,82.50
2023-04-10T19:01:35.869Z,83.11
2023-04-10T19:02:35.944Z,83.27
2023-04-10T19:03:36.019Z,83.27
2023-04-10T19:04:35.913Z,83.78
2023-04-10T19:05:35.742Z,83.92
2023-04-10T19:06:35.742Z,84.09
2023-04-10T19:07:35.726Z,84.29
2023-04-10T19:08:35.785Z,84.64
2023-04-10T19:09:35.711Z,84.09
2023-04-10T19:10:35.764Z,83.89
2023-04-10T19:11:36.596Z,84.29
2023-04-10T19:12:35.704Z,84.19
2023-04-10T19:13:35.687Z,84.43
2023-04-10T19:14:35.744Z,84.03
2023-04-10T19:15:35.688Z,84.84
2023-04-10T19:16:35.677Z,84.84
2023-04-10T19:17:35.622Z,84.74
2023-04-10T19:18:35.609Z,84.12
2023-04-10T19:19:35.640Z,84.84
2023-04-10T19:20:52.563Z,84.84
2023-04-10T19:21:35.583Z,85.14
2023-04-10T19:22:35.598Z,85.05
2023-04-10T19:23:35.521Z,85.05
2023-04-10T19:24:35.559Z,84.64
2023-04-10T19:25:35.554Z,84.84
2023-04-10T19:26:36.111Z,84.47
2023-04-10T19:27:35.464Z,84.43
2023-04-10T19:28:35.571Z,85.45
2023-04-10T19:29:35.503Z,85.49
2023-04-10T19:30:35.475Z,85.35
2023-04-10T19:31:35.497Z,84.74
2023-04-10T19:32:35.531Z,84.53
2023-04-10T19:33:35.457Z,84.74
2023-04-10T19:34:35.497Z,84.74
2023-04-10T19:35:35.443Z,84.53
2023-04-10T19:36:35.422Z,84.74
2023-04-10T19:37:35.396Z,84.88
2023-04-10T19:38:36.117Z,85.19
2023-04-10T19:39:35.430Z,85.19
2023-04-10T19:40:35.404Z,85.49
2023-04-10T19:41:35.342Z,85.28
2023-04-10T19:42:35.359Z,85.53
2023-04-10T19:43:35.399Z,85.43
2023-04-10T19:44:35.650Z,85.74
2023-04-10T19:45:35.327Z,85.84
2023-04-10T19:46:35.382Z,85.53
2023-04-10T19:47:35.319Z,85.63
2023-04-10T19:48:35.260Z,85.74
2023-04-10T19:49:35.268Z,86.24
2023-04-10T19:50:35.330Z,86.04
2023-04-10T19:51:35.204Z,86.00
2023-04-10T19:52:35.281Z,85.80
2023-04-10T19:53:35.194Z,85.39
2023-04-10T19:54:35.213Z,85.08
2023-04-10T19:55:35.156Z,85.39
2023-04-10T19:56:35.216Z,85.19
2023-04-10T19:57:35.161Z,85.49
2023-04-10T19:58:40.389Z,86.30
2023-04-10T19:59:35.138Z,86.15
2023-04-10T20:00:35.134Z,86.96
2023-04-10T20:01:35.127Z,87.16
2023-04-10T20:02:35.255Z,87.26
2023-04-10T20:03:35.214Z,87.67
2023-04-10T20:04:35.205Z,88.22
2023-04-10T20:05:35.172Z,88.32
2023-04-10T20:06:35.060Z,88.63
2023-04-10T20:07:35.044Z,88.59
2023-04-10T20:08:35.075Z,88.53
2023-04-10T20:09:35.041Z,88.93
2023-04-10T20:10:35.053Z,89.25
2023-04-10T20:11:34.991Z,89.55
2023-04-10T20:12:34.976Z,90.20
2023-04-10T20:13:35.188Z,90.51
2023-04-10T20:14:34.967Z,90.51
2023-04-10T20:15:35.005Z,90.61
2023-04-10T20:16:35.096Z,90.61
2023-04-10T20:17:35.074Z,90.67
2023-04-10T20:18:34.953Z,90.92
2023-04-10T20:19:34.923Z,91.12
2023-04-10T20:20:34.995Z,91.02
2023-04-10T20:21:34.861Z,91.43
2023-04-10T20:22:34.899Z,91.74
2023-04-10T20:23:34.842Z,91.63
2023-04-10T20:24:34.947Z,91.12
2023-04-10T20:25:34.865Z,91.12
2023-04-10T20:26:34.842Z,91.22
2023-04-10T20:27:34.789Z,90.81
2023-04-10T20:28:34.823Z,90.92
2023-04-10T20:29:34.824Z,90.92
2023-04-10T20:30:34.800Z,90.61
2023-04-10T20:31:34.943Z,90.77
2023-04-10T20:32:34.787Z,90.67
2023-04-10T20:33:34.749Z,90.47
2023-04-10T20:34:34.759Z,90.16
2023-04-10T20:35:34.762Z,90.16
2023-04-10T20:36:34.696Z,90.16
2023-04-10T20:37:34.805Z,90.06
2023-04-10T20:38:34.699Z,90.36
2023-04-10T20:39:34.690Z,90.67
2023-04-10T20:40:34.714Z,90.36
2023-04-10T20:41:34.722Z,90.47
2023-04-10T20:42:34.649Z,90.47
2023-04-10T20:43:34.596Z,90.47
2023-04-10T20:44:34.676Z,90.36
2023-04-10T20:45:34.632Z,89.86
2023-04-10T20:46:34.629Z,89.96
2023-04-10T20:47:34.635Z,89.65
2023-04-10T20:48:34.649Z,89.90
2023-04-10T20:49:34.563Z,89.90
2023-04-10T20:50:34.592Z,89.79
2023-04-10T20:51:34.524Z,89.69
2023-04-10T20:52:34.546Z,89.90
2023-04-10T20:53:34.501Z,90.10
2023-04-10T20:54:34.537Z,90.00
2023-04-10T20:55:34.514Z,90.45
2023-04-10T20:56:42.693Z,90.75
2023-04-10T20:57:34.464Z,90.66
2023-04-10T20:58:34.487Z,90.66
2023-04-10T20:59:34.441Z,90.86
2023-04-10T21:00:34.545Z,90.75
2023-04-10T21:01:34.661Z,90.55
2023-04-10T21:02:34.571Z,90.55
2023-04-10T21:03:34.505Z,90.86
2023-04-10T21:04:34.462Z,90.66
2023-04-10T21:05:34.401Z,90.51
2023-04-10T21:06:35.072Z,90.45
2023-04-10T21:07:34.395Z,90.96
2023-04-10T21:08:34.357Z,91.37
2023-04-10T21:09:34.400Z,91.52
2023-04-10T21:10:34.379Z,91.57
2023-04-10T21:11:34.305Z,91.47
2023-04-10T21:12:34.416Z,91.47
2023-04-10T21:13:36.019Z,91.52
2023-04-10T21:14:34.287Z,91.37
2023-04-10T21:15:34.321Z,90.49
2023-04-10T21:16:34.270Z,90.08
2023-04-10T21:17:34.343Z,90.39
2023-04-10T21:18:34.239Z,90.59
2023-04-10T21:19:34.295Z,90.59
2023-04-10T21:20:35.127Z,90.90
2023-04-10T21:21:34.175Z,91.25
2023-04-10T21:22:34.209Z,91.35
2023-04-10T21:23:34.173Z,89.92
2023-04-10T21:24:34.221Z,89.92
2023-04-10T21:25:34.167Z,89.15
2023-04-10T21:26:34.157Z,89.15
2023-04-10T21:27:34.143Z,88.84
2023-04-10T21:28:34.113Z,89.15
2023-04-10T21:29:34.113Z,89.31
2023-04-10T21:30:34.111Z,89.35
2023-04-10T21:31:34.093Z,89.45
2023-04-10T21:32:34.125Z,89.20
2023-04-10T21:33:34.053Z,89.25
2023-04-10T21:34:34.044Z,89.35
2023-04-10T21:35:34.105Z,89.56
2023-04-10T21:36:34.056Z,89.25
2023-04-10T21:37:34.044Z,89.25
2023-04-10T21:38:33.997Z,88.64
2023-04-10T21:39:33.957Z,88.94
2023-04-10T21:40:34.069Z,88.98
2023-04-10T21:41:33.963Z,89.18
2023-04-10T21:42:33.955Z,89.09
2023-04-10T21:43:33.949Z,87.96
2023-04-10T21:44:33.921Z,88.17
2023-04-10T21:45:34.047Z,88.78
2023-04-10T21:46:33.989Z,88.47
2023-04-10T21:47:33.891Z,89.09
2023-04-10T21:48:33.917Z,88.57
2023-04-10T21:49:33.863Z,88.47
2023-04-10T21:50:33.902Z,88.78
2023-04-10T21:51:33.874Z,88.47
2023-04-10T21:52:33.848Z,88.68
2023-04-10T21:53:33.905Z,89.29
2023-04-10T21:54:33.821Z,89.29
2023-04-10T21:55:33.841Z,89.29
2023-04-10T21:56:33.813Z,89.50
2023-04-10T21:57:33.789Z,89.50
2023-04-10T21:58:33.793Z,89.50
2023-04-10T21:59:33.778Z,89.50
2023-04-10T22:00:33.792Z,89.59
2023-04-10T22:01:33.832Z,89.50
2023-04-10T22:02:33.865Z,89.64
2023-04-10T22:03:33.802Z,89.84
2023-04-10T22:04:34.671Z,89.70
2023-04-10T22:05:33.774Z,89.50
2023-04-10T22:06:33.701Z,89.64
2023-04-10T22:07:33.692Z,89.43
2023-04-10T22:08:33.733Z,89.39
2023-04-10T22:09:33.632Z,89.33
2023-04-10T22:10:33.718Z,89.39
2023-04-10T22:11:33.636Z,89.18
2023-04-10T22:12:33.683Z,88.98
2023-04-10T22:13:33.672Z,89.09
2023-04-10T22:14:33.575Z,89.18
2023-04-10T22:15:33.645Z,89.09
2023-04-10T22:16:33.628Z,88.98
2023-04-10T22:17:33.683Z,89.50
2023-04-10T22:18:33.531Z,90.05
2023-04-10T22:19:33.510Z,90.45
2023-04-10T22:20:33.696Z,90.52
2023-04-10T22:21:33.511Z,90.77
2023-04-10T22:22:33.551Z,91.03
2023-04-10T22:23:33.553Z,90.82
2023-04-10T22:24:35.253Z,90.92
2023-04-10T22:25:34.956Z,90.62
2023-04-10T22:26:33.474Z,90.41
2023-04-10T22:27:33.456Z,90.41
2023-04-10T22:28:33.448Z,90.31
2023-04-10T22:29:33.434Z,90.52
2023-04-10T22:30:33.476Z,90.52
2023-04-10T22:31:33.394Z,90.62
2023-04-10T22:32:33.409Z,90.62
2023-04-10T22:33:33.464Z,90.72
2023-04-10T22:34:33.339Z,90.31
2023-04-10T22:35:34.203Z,90.11
2023-04-10T22:36:33.330Z,90.36
2023-04-10T22:37:33.324Z,90.56
2023-04-10T22:38:33.300Z,90.56
2023-04-10T22:39:33.307Z,90.66
2023-04-10T22:40:33.325Z,90.56
2023-04-10T22:41:33.334Z,90.45
2023-04-10T22:42:33.313Z,89.84
2023-04-10T22:43:33.267Z,89.94
2023-04-10T22:44:33.258Z,89.94
2023-04-10T22:45:33.256Z,89.84
2023-04-10T22:46:33.308Z,90.05
2023-04-10T22:47:33.274Z,90.15
2023-04-10T22:48:33.236Z,89.53
2023-04-10T22:49:33.238Z,89.84
2023-04-10T22:50:33.235Z,89.74
2023-04-10T22:51:33.225Z,89.64
2023-04-10T22:52:33.140Z,89.74
2023-04-10T22:53:33.207Z,89.37
2023-04-10T22:54:33.136Z,89.58